Adair, Iowa
Current Conditions -  °F | °C
As of 8:55 PM on Friday 21 Nov 2014 (Local Time) from KADU Reporting Station
Clear Clear  
Wind Chill: 28°   Ceiling: Unl
Heat Index: 36°   Visibility: 7mi
Dew Point: 28°   Wind: 12mph
Humidity: 75%   Direction: 190°S
Pressure: 30.03"   Gusts: 16mph
Location:  41.5°N, 94.64°W
Report Text: KADU 220255Z AUTO 19010G14KT 7SM CLR 02/M02 A3003 RMK AO2
Loading
Personal Weather Stations






























Interactive Weather Map New forecast layout! Learn more

10-Day Weather Forecast

Advertisements
Track Severe Weather on mobile